Terminal Aerodrome Forecast
Issued by NWS

Home | Current Version | Previous Version | Text Only | Print | Product List | Glossary Off
Versions: 1 2 3 4 5 6 7 8 9 10 11 12 13 14 15 16

000
FTUS43 KMPX 161500 AAA
TAFRNH
TAF AMD
KRNH 161527Z 1615/1712 10016G24KT 3SM -SN OVC025
      TEMPO 1615/1618 1SM -SN OVC007
     FM161800 11014G22KT 5SM -RASN BR OVC018
     FM162000 08014G20KT 3SM -RA BR OVC015
     FM162300 06012G18KT 4SM -RASN BR OVC010
     FM170600 35012KT 4SM -RASN OVC010=

USA.gov is the U.S. government's official web portal to all federal, state and local government web resources and services.